Terminal Aerodrome Forecast
Issued by NWS

Home | Current Version | Previous Version | Text Only | Print | Product List | Glossary Off
Versions: 1 2 3 4 5 6 7 8 9 10 11 12 13 14 15 16 17 18 19 20 21 22 23 24 25 26 27 28 29

000
FTUS43 KLOT 150258 AAB
TAFORD
TAF AMD
KORD 150258Z 1503/1606 15013KT P6SM VCSH FEW035 SCT050 BKN100
      TEMPO 1504/1505 4SM -TSRA BR SCT015 BKN035CB
     FM150500 22012G20KT 4SM -SHRA BR VCTS SCT012 BKN035CB
      TEMPO 1505/1509 2SM TSRA OVC025CB
     FM151100 29020G35KT P6SM VCSH OVC015
     FM151600 32017G26KT P6SM BKN025
     FM152000 32014G22KT P6SM SCT030
     FM160100 31009KT P6SM SCT250=

USA.gov is the U.S. government's official web portal to all federal, state and local government web resources and services.